createdAt,value
2019-04-11T00:01:16.359Z,58.73
2019-04-11T00:03:47.446Z,59.55
2019-04-11T00:06:19.341Z,64.90
2019-04-11T00:08:50.479Z,57.98
2019-04-11T00:11:21.957Z,58.00
2019-04-11T00:13:53.640Z,57.40
2019-04-11T00:16:25.564Z,68.28
2019-04-11T00:18:56.907Z,55.60
2019-04-11T00:21:28.838Z,53.25
2019-04-11T00:24:00.738Z,52.35
2019-04-11T00:26:32.752Z,44.38
2019-04-11T00:29:03.936Z,43.70
2019-04-11T00:31:35.134Z,42.45
2019-04-11T00:34:06.842Z,38.45
2019-04-11T00:36:38.714Z,40.45
2019-04-11T00:39:11.166Z,34.48
2019-04-11T00:41:42.225Z,42.95
2019-04-11T00:44:13.201Z,39.58
2019-04-11T00:46:44.623Z,37.30
2019-04-11T00:49:16.475Z,36.55
2019-04-11T00:51:47.758Z,34.85
2019-04-11T00:54:18.654Z,37.25
2019-04-11T00:56:50.628Z,44.93
2019-04-11T00:59:22.442Z,38.55
2019-04-11T01:01:53.590Z,38.30
2019-04-11T01:04:25.532Z,32.63
2019-04-11T01:06:58.382Z,37.90
2019-04-11T01:09:30.517Z,37.93
2019-04-11T01:12:02.405Z,38.90
2019-04-11T01:14:34.188Z,33.98
2019-04-11T01:17:06.634Z,40.45
2019-04-11T01:19:38.719Z,39.18
2019-04-11T01:22:09.771Z,37.50
2019-04-11T01:24:41.955Z,41.63
2019-04-11T01:27:13.902Z,32.90
2019-04-11T01:29:44.672Z,29.52
2019-04-11T01:32:15.962Z,30.12
2019-04-11T01:34:46.979Z,31.23
2019-04-11T01:37:18.036Z,31.52
2019-04-11T01:40:02.412Z,27.32
2019-04-11T01:42:33.533Z,26.02
2019-04-11T01:45:05.447Z,30.82
2019-04-11T01:47:53.241Z,35.45
2019-04-11T01:50:25.677Z,30.05
2019-04-11T01:52:56.720Z,27.10
2019-04-11T01:55:28.257Z,25.48
2019-04-11T01:58:00.365Z,25.80
2019-04-11T02:00:32.766Z,28.02
2019-04-11T02:03:06.621Z,28.05
2019-04-11T02:05:37.567Z,26.93
2019-04-11T02:08:09.647Z,33.00
2019-04-11T02:10:41.190Z,38.33
2019-04-11T02:13:12.160Z,30.82
2019-04-11T02:15:44.187Z,25.60
2019-04-11T02:18:15.123Z,21.42
2019-04-11T02:20:47.255Z,28.62
2019-04-11T02:23:23.374Z,19.62
2019-04-11T02:26:05.088Z,27.45
2019-04-11T02:28:37.017Z,25.00
2019-04-11T02:31:10.166Z,23.67
2019-04-11T02:33:41.395Z,31.30
2019-04-11T02:36:13.790Z,25.70
2019-04-11T02:38:46.798Z,25.82
2019-04-11T02:41:18.817Z,28.52
2019-04-11T02:43:50.938Z,25.08
2019-04-11T02:46:34.647Z,22.48
2019-04-11T02:48:56.224Z,22.10
2019-04-11T02:51:28.532Z,21.12
2019-04-11T02:53:59.860Z,21.48
2019-04-11T02:56:31.234Z,24.75
2019-04-11T02:59:04.505Z,20.48
2019-04-11T03:01:36.307Z,27.95
2019-04-11T03:04:07.660Z,25.57
2019-04-11T03:06:39.706Z,23.27
2019-04-11T03:09:13.286Z,24.82
2019-04-11T03:11:45.106Z,20.08
2019-04-11T03:14:18.554Z,28.40
2019-04-11T03:16:59.048Z,27.45
2019-04-11T03:19:37.490Z,28.02
2019-04-11T03:21:54.545Z,25.27
2019-04-11T03:24:28.381Z,26.93
2019-04-11T03:27:04.076Z,23.73
2019-04-11T03:29:35.396Z,26.37
2019-04-11T03:32:52.105Z,24.37
2019-04-11T03:37:41.404Z,28.95
2019-04-11T03:40:04.665Z,30.57
2019-04-11T03:42:36.696Z,33.67
2019-04-11T03:45:15.198Z,30.92
2019-04-11T03:47:37.375Z,32.05
2019-04-11T03:50:06.036Z,29.45
2019-04-11T03:52:32.743Z,24.45
2019-04-11T03:55:07.947Z,28.95
2019-04-11T03:57:39.404Z,32.05
2019-04-11T04:00:14.242Z,25.45
2019-04-11T04:02:44.588Z,24.23
2019-04-11T04:05:15.401Z,25.72
2019-04-11T04:07:48.700Z,25.52
2019-04-11T04:10:23.609Z,23.92
2019-04-11T04:12:55.870Z,25.37
2019-04-11T04:15:42.101Z,27.05
2019-04-11T04:18:21.288Z,40.58
2019-04-11T04:20:57.634Z,36.28
2019-04-11T04:23:31.469Z,32.25
2019-04-11T04:26:03.124Z,30.75
2019-04-11T04:28:35.725Z,35.38
2019-04-11T04:31:09.149Z,37.33
2019-04-11T04:33:40.152Z,39.23
2019-04-11T04:36:13.319Z,38.78
2019-04-11T04:38:54.462Z,35.80
2019-04-11T04:41:37.752Z,34.75
2019-04-11T04:44:01.711Z,33.02
2019-04-11T04:46:47.059Z,33.58
2019-04-11T04:49:06.864Z,41.73
2019-04-11T04:51:39.121Z,27.93
2019-04-11T04:54:10.132Z,41.10
2019-04-11T04:56:41.980Z,33.95
2019-04-11T04:59:14.627Z,34.70
2019-04-11T05:01:48.274Z,35.60
2019-04-11T05:04:19.303Z,33.73
2019-04-11T05:06:52.942Z,33.90
2019-04-11T05:09:23.707Z,29.10
2019-04-11T05:11:56.724Z,38.35
2019-04-11T05:14:27.637Z,37.28
2019-04-11T05:17:00.170Z,35.52
2019-04-11T05:19:32.014Z,34.40
2019-04-11T05:22:02.858Z,33.80
2019-04-11T05:24:34.828Z,33.40
2019-04-11T05:27:08.327Z,32.48
2019-04-11T05:29:39.727Z,36.00
2019-04-11T05:32:11.321Z,32.65
2019-04-11T05:34:43.440Z,35.98
2019-04-11T05:37:15.315Z,25.97
2019-04-11T05:39:46.006Z,28.60
2019-04-11T05:42:19.416Z,27.95
2019-04-11T05:44:49.940Z,24.67
2019-04-11T05:47:21.477Z,32.13
2019-04-11T05:49:56.877Z,29.67
2019-04-11T05:52:31.930Z,26.70
2019-04-11T05:55:02.818Z,25.80
2019-04-11T05:57:36.681Z,21.73
2019-04-11T06:00:09.711Z,30.15
2019-04-11T06:02:45.658Z,27.48
2019-04-11T06:05:19.281Z,31.02
2019-04-11T06:07:57.580Z,33.88
2019-04-11T06:10:31.670Z,29.55
2019-04-11T06:13:08.031Z,34.00
2019-04-11T06:15:42.796Z,32.67
2019-04-11T06:18:35.330Z,34.13
2019-04-11T06:21:13.858Z,30.17
2019-04-11T06:23:49.906Z,28.05
2019-04-11T06:26:25.179Z,36.53
2019-04-11T06:29:17.175Z,33.33
2019-04-11T06:32:03.717Z,40.65
2019-04-11T06:34:37.549Z,39.80
2019-04-11T06:37:10.024Z,37.15
2019-04-11T06:39:45.485Z,38.80
2019-04-11T06:42:33.608Z,39.53
2019-04-11T06:45:23.792Z,34.88
2019-04-11T06:50:52.420Z,37.63
2019-04-11T06:53:25.904Z,36.73
2019-04-11T06:56:10.484Z,34.98
2019-04-11T06:58:46.162Z,34.30
2019-04-11T07:01:18.738Z,33.92
2019-04-11T07:03:51.249Z,37.10
2019-04-11T07:06:23.934Z,37.17
2019-04-11T07:09:09.525Z,32.00
2019-04-11T07:11:44.899Z,30.55
2019-04-11T07:14:33.825Z,29.63
2019-04-11T07:17:23.083Z,31.57
2019-04-11T07:20:14.098Z,28.83
2019-04-11T07:23:03.750Z,24.63
2019-04-11T07:25:37.317Z,26.97
2019-04-11T07:28:12.560Z,20.45
2019-04-11T07:31:02.403Z,22.20
2019-04-11T07:33:45.064Z,19.53
2019-04-11T07:36:33.900Z,21.30
2019-04-11T07:39:07.988Z,20.60
2019-04-11T07:41:41.689Z,19.17
2019-04-11T07:44:15.428Z,17.45
2019-04-11T07:47:13.653Z,24.27
2019-04-11T07:49:38.243Z,21.93
2019-04-11T07:52:11.081Z,18.20
2019-04-11T07:54:43.248Z,18.82
2019-04-11T07:57:32.306Z,18.45
2019-04-11T08:00:08.210Z,17.45
2019-04-11T08:02:57.465Z,18.37
2019-04-11T08:05:39.344Z,24.10
2019-04-11T08:08:17.766Z,20.15
2019-04-11T08:11:06.721Z,18.77
2019-04-11T08:13:48.137Z,22.17
2019-04-11T08:16:24.598Z,21.50
2019-04-11T08:18:57.206Z,17.37
2019-04-11T08:21:39.091Z,21.68
2019-04-11T08:24:12.043Z,19.80
2019-04-11T08:27:00.995Z,23.50
2019-04-11T08:29:31.898Z,16.35
2019-04-11T08:32:11.669Z,20.08
2019-04-11T08:34:53.538Z,19.50
2019-04-11T08:37:26.064Z,17.95
2019-04-11T08:39:59.680Z,15.43
2019-04-11T08:42:32.155Z,15.08
2019-04-11T08:45:04.100Z,16.52
2019-04-11T08:47:45.985Z,17.40
2019-04-11T08:50:10.270Z,16.73
2019-04-11T08:52:46.522Z,13.85
2019-04-11T08:55:19.144Z,15.55
2019-04-11T08:57:51.971Z,19.67
2019-04-11T09:00:43.237Z,17.30
2019-04-11T09:03:29.385Z,14.55
2019-04-11T09:06:02.765Z,12.65
2019-04-11T09:08:51.818Z,15.40
2019-04-11T09:11:24.596Z,15.13
2019-04-11T09:14:13.748Z,13.78
2019-04-11T09:16:56.807Z,13.18
2019-04-11T09:19:32.776Z,13.32
2019-04-11T09:22:11.606Z,13.75
2019-04-11T09:24:44.674Z,12.30
2019-04-11T09:27:34.082Z,12.53
2019-04-11T09:30:25.803Z,9.77
2019-04-11T09:33:17.198Z,10.55
2019-04-11T09:35:52.672Z,10.68
2019-04-11T09:38:32.682Z,14.58
2019-04-11T09:41:15.030Z,15.08
2019-04-11T09:43:46.342Z,13.25
2019-04-11T09:46:18.888Z,14.65
2019-04-11T09:48:54.159Z,10.65
2019-04-11T09:51:33.771Z,11.10
2019-04-11T09:54:26.185Z,10.60
2019-04-11T09:57:16.395Z,7.72
2019-04-11T09:59:58.334Z,8.23
2019-04-11T10:02:36.638Z,8.43
2019-04-11T10:05:12.219Z,11.43
2019-04-11T10:07:46.081Z,9.75
2019-04-11T10:10:19.026Z,13.18
2019-04-11T10:13:08.836Z,12.00
2019-04-11T10:15:58.177Z,11.45
2019-04-11T10:18:50.012Z,9.55
2019-04-11T10:21:23.053Z,11.22
2019-04-11T10:24:05.413Z,12.85
2019-04-11T10:26:47.880Z,8.40
2019-04-11T10:29:31.544Z,9.13
2019-04-11T10:32:01.709Z,9.53
2019-04-11T10:34:46.290Z,10.40
2019-04-11T10:37:19.936Z,10.25
2019-04-11T10:39:59.817Z,11.12
2019-04-11T10:42:31.235Z,11.60
2019-04-11T10:45:10.123Z,10.58
2019-04-11T10:47:41.230Z,10.40
2019-04-11T10:50:17.518Z,8.73
2019-04-11T10:52:53.163Z,11.88
2019-04-11T10:55:25.748Z,12.37
2019-04-11T10:58:08.718Z,10.80
2019-04-11T11:00:41.487Z,11.20
2019-04-11T11:03:14.081Z,9.95
2019-04-11T11:06:01.712Z,12.03
2019-04-11T11:08:41.628Z,9.68
2019-04-11T11:11:17.554Z,11.22
2019-04-11T11:14:06.697Z,9.55
2019-04-11T11:16:41.914Z,10.35
2019-04-11T11:19:48.710Z,9.75
2019-04-11T11:22:19.158Z,10.13
2019-04-11T11:25:10.741Z,7.45
2019-04-11T11:30:31.545Z,8.20
2019-04-11T11:33:02.776Z,7.70
2019-04-11T11:35:50.313Z,10.98
2019-04-11T11:38:23.983Z,10.10
2019-04-11T11:41:00.399Z,8.83
2019-04-11T11:43:32.945Z,9.28
2019-04-11T11:46:06.919Z,8.10
2019-04-11T11:48:52.199Z,7.97
2019-04-11T11:51:28.246Z,7.75
2019-04-11T11:54:15.634Z,9.48
2019-04-11T11:56:48.846Z,11.97
2019-04-11T11:59:30.723Z,7.17
2019-04-11T12:02:09.030Z,9.25
2019-04-11T12:04:57.045Z,18.90
2019-04-11T12:07:33.732Z,10.25
2019-04-11T12:10:13.378Z,7.17
2019-04-11T12:12:52.115Z,9.28
2019-04-11T12:15:26.846Z,3.95
2019-04-11T12:18:01.843Z,7.90
2019-04-11T12:20:44.386Z,6.70
2019-04-11T12:26:05.330Z,5.53
2019-04-11T12:28:54.236Z,10.70
2019-04-11T12:31:32.090Z,9.43
2019-04-11T12:34:10.290Z,4.47
2019-04-11T12:36:48.646Z,7.92
2019-04-11T12:39:36.712Z,8.90
2019-04-11T12:42:13.311Z,6.67
2019-04-11T12:45:02.274Z,7.28
2019-04-11T12:47:38.276Z,7.47
2019-04-11T12:50:13.279Z,7.92
2019-04-11T12:52:58.040Z,7.62
2019-04-11T12:55:30.633Z,9.18
2019-04-11T12:58:03.227Z,9.88
2019-04-11T13:00:49.146Z,7.40
2019-04-11T13:03:31.141Z,8.98
2019-04-11T13:06:12.739Z,4.70
2019-04-11T13:09:00.557Z,9.65
2019-04-11T13:11:33.045Z,10.18
2019-04-11T13:14:05.663Z,5.37
2019-04-11T13:16:37.842Z,5.20
2019-04-11T13:19:26.035Z,8.63
2019-04-11T13:21:58.680Z,7.03
2019-04-11T13:24:47.945Z,7.97
2019-04-11T13:27:20.643Z,6.83
2019-04-11T13:35:45.783Z,5.45
2019-04-11T13:38:24.513Z,6.22
2019-04-11T13:43:51.469Z,5.40
2019-04-11T13:46:26.782Z,7.45
2019-04-11T13:49:14.574Z,7.83
2019-04-11T13:51:53.187Z,7.70
2019-04-11T13:54:39.283Z,7.70
2019-04-11T13:57:26.711Z,5.33
2019-04-11T14:00:15.888Z,8.13
2019-04-11T14:03:05.159Z,10.97
2019-04-11T14:05:43.356Z,3.83
2019-04-11T14:08:32.435Z,7.78
2019-04-11T14:11:18.433Z,7.22
2019-04-11T14:13:49.594Z,8.03
2019-04-11T14:16:22.392Z,6.22
2019-04-11T14:19:07.195Z,6.28
2019-04-11T14:21:43.248Z,7.90
2019-04-11T14:24:15.640Z,7.15
2019-04-11T14:27:04.990Z,5.42
2019-04-11T14:29:57.144Z,8.25
2019-04-11T14:32:36.210Z,8.58
2019-04-11T14:35:18.670Z,6.67
2019-04-11T14:37:51.059Z,5.87
2019-04-11T14:40:23.757Z,9.88
2019-04-11T14:43:13.672Z,8.48
2019-04-11T14:45:55.932Z,9.20
2019-04-11T14:48:34.576Z,9.78
2019-04-11T14:51:15.968Z,10.78
2019-04-11T14:56:44.168Z,10.58
2019-04-11T14:59:23.948Z,8.18
2019-04-11T15:01:56.927Z,13.40
2019-04-11T15:04:44.663Z,14.45
2019-04-11T15:07:17.359Z,17.67
2019-04-11T15:09:56.194Z,13.68
2019-04-11T15:12:34.719Z,12.73
2019-04-11T15:15:25.719Z,17.10
2019-04-11T15:17:58.299Z,18.82
2019-04-11T15:20:54.880Z,16.05
2019-04-11T15:23:20.875Z,14.00
2019-04-11T15:25:59.420Z,11.33
2019-04-11T15:28:44.451Z,10.98
2019-04-11T15:31:26.291Z,16.00
2019-04-11T15:34:16.256Z,14.03
2019-04-11T15:36:57.781Z,11.60
2019-04-11T15:39:29.012Z,13.58
2019-04-11T15:42:02.429Z,15.90
2019-04-11T15:44:49.685Z,21.15
2019-04-11T15:47:21.857Z,12.28
2019-04-11T15:49:54.339Z,12.33
2019-04-11T15:52:25.403Z,13.80
2019-04-11T15:55:13.132Z,16.67
2019-04-11T15:57:45.016Z,16.20
2019-04-11T16:00:20.572Z,14.45
2019-04-11T16:03:04.710Z,17.12
2019-04-11T16:05:55.524Z,21.85
2019-04-11T16:08:34.157Z,16.17
2019-04-11T16:11:21.486Z,18.95
2019-04-11T16:16:48.293Z,22.85
2019-04-11T16:19:49.438Z,25.85
2019-04-11T16:22:48.398Z,23.32
2019-04-11T16:25:31.966Z,43.23
2019-04-11T16:28:21.475Z,33.38
2019-04-11T16:30:54.487Z,27.32
2019-04-11T16:33:29.915Z,23.65
2019-04-11T16:36:17.185Z,34.25
2019-04-11T16:39:03.754Z,76.28
2019-04-11T16:41:54.673Z,70.67
2019-04-11T16:47:16.525Z,63.17
2019-04-11T16:49:49.471Z,68.25
2019-04-11T16:52:21.404Z,79.27
2019-04-11T16:54:52.349Z,84.80
2019-04-11T16:57:23.426Z,84.40
2019-04-11T16:59:54.077Z,86.55
2019-04-11T17:02:25.036Z,81.80
2019-04-11T17:04:56.396Z,69.53
2019-04-11T17:07:38.596Z,79.70
2019-04-11T17:10:20.924Z,93.37
2019-04-11T17:12:53.844Z,86.82
2019-04-11T17:15:25.994Z,83.82
2019-04-11T17:17:57.057Z,88.60
2019-04-11T17:20:35.724Z,88.17
2019-04-11T17:23:12.164Z,76.25
2019-04-11T17:25:43.691Z,74.27
2019-04-11T17:28:14.917Z,69.25
2019-04-11T17:30:45.959Z,79.37
2019-04-11T17:33:17.037Z,89.70
2019-04-11T17:35:49.223Z,96.63
2019-04-11T17:38:20.168Z,94.80
2019-04-11T17:40:51.147Z,89.25
2019-04-11T17:43:22.405Z,84.25
2019-04-11T17:45:56.871Z,81.08
2019-04-11T17:48:26.149Z,68.87
2019-04-11T17:50:58.941Z,62.20
2019-04-11T17:53:30.023Z,64.90
2019-04-11T17:56:00.981Z,82.62
2019-04-11T17:58:32.026Z,74.53
2019-04-11T18:01:05.422Z,77.37
2019-04-11T18:03:37.012Z,78.67
2019-04-11T18:06:08.089Z,85.72
2019-04-11T18:08:39.130Z,73.97
2019-04-11T18:11:10.093Z,68.95
2019-04-11T18:13:40.859Z,75.28
2019-04-11T18:16:12.025Z,74.58
2019-04-11T18:18:43.084Z,84.17
2019-04-11T18:21:14.246Z,122.35
2019-04-11T18:23:45.293Z,107.40
2019-04-11T18:26:16.069Z,81.25
2019-04-11T18:28:47.437Z,67.25
2019-04-11T18:31:19.094Z,82.75
2019-04-11T18:33:49.860Z,81.65
2019-04-11T18:36:21.840Z,72.65
2019-04-11T18:38:53.003Z,69.27
2019-04-11T18:41:24.047Z,64.15
2019-04-11T18:43:55.329Z,59.63
2019-04-11T18:46:26.387Z,61.15
2019-04-11T18:48:57.459Z,83.65
2019-04-11T18:51:30.417Z,80.12
2019-04-11T18:54:00.900Z,89.83
2019-04-11T18:56:31.959Z,83.37
2019-04-11T18:59:03.689Z,86.87
2019-04-11T19:01:39.096Z,107.07
2019-04-11T19:04:11.724Z,109.78
2019-04-11T19:06:42.551Z,130.78
2019-04-11T19:09:14.848Z,124.78
2019-04-11T19:11:51.396Z,110.70
2019-04-11T19:14:24.553Z,103.42
2019-04-11T19:16:54.662Z,93.67
2019-04-11T19:19:27.447Z,79.10
2019-04-11T19:21:58.522Z,83.35
2019-04-11T19:24:35.534Z,75.30
2019-04-11T19:27:01.667Z,65.90
2019-04-11T19:29:32.764Z,67.65
2019-04-11T19:32:03.790Z,61.37
2019-04-11T19:34:34.953Z,61.33
2019-04-11T19:37:06.404Z,70.25
2019-04-11T19:39:37.359Z,62.08
2019-04-11T19:42:08.957Z,77.80
2019-04-11T19:44:40.506Z,84.83
2019-04-11T19:47:11.464Z,75.10
2019-04-11T19:49:42.549Z,77.47
2019-04-11T19:52:13.602Z,74.12
2019-04-11T19:54:44.654Z,65.15
2019-04-11T19:57:15.707Z,51.10
2019-04-11T19:59:46.769Z,56.37
2019-04-11T20:02:17.634Z,61.33
2019-04-11T20:04:48.786Z,59.33
2019-04-11T20:07:20.213Z,58.73
2019-04-11T20:09:50.906Z,61.85
2019-04-11T20:12:21.866Z,63.90
2019-04-11T20:14:54.378Z,68.50
2019-04-11T20:17:25.435Z,70.70
2019-04-11T20:20:01.449Z,71.97
2019-04-11T20:22:28.870Z,72.92
2019-04-11T20:24:59.948Z,77.37
2019-04-11T20:27:30.702Z,72.58
2019-04-11T20:30:02.068Z,65.95
2019-04-11T20:32:33.748Z,60.83
2019-04-11T20:35:09.325Z,57.70
2019-04-11T20:37:44.493Z,54.73
2019-04-11T20:40:17.435Z,53.00
2019-04-11T20:42:45.554Z,60.05
2019-04-11T20:45:16.718Z,57.85
2019-04-11T20:47:47.880Z,56.20
2019-04-11T20:50:18.532Z,56.02
2019-04-11T20:52:49.387Z,46.73
2019-04-11T20:55:20.451Z,53.30
2019-04-11T20:57:51.406Z,56.00
2019-04-11T21:00:23.166Z,55.63
2019-04-11T21:02:58.128Z,60.50
2019-04-11T21:05:30.542Z,69.10
2019-04-11T21:08:02.609Z,60.23
2019-04-11T21:10:31.900Z,60.67
2019-04-11T21:13:06.958Z,69.07
2019-04-11T21:15:36.299Z,63.68
2019-04-11T21:18:07.359Z,66.97
2019-04-11T21:20:39.625Z,67.50
2019-04-11T21:23:10.707Z,85.15
2019-04-11T21:25:41.869Z,58.80
2019-04-11T21:28:12.605Z,58.90
2019-04-11T21:30:43.686Z,70.28
2019-04-11T21:33:14.848Z,67.10
2019-04-11T21:35:45.907Z,70.92
2019-04-11T21:38:17.664Z,80.22
2019-04-11T21:40:48.642Z,87.15
2019-04-11T21:43:19.600Z,82.00
2019-04-11T21:45:50.764Z,73.72
2019-04-11T21:48:21.622Z,70.15
2019-04-11T21:50:52.681Z,81.08
2019-04-11T21:53:23.519Z,84.03
2019-04-11T21:55:54.499Z,74.95
2019-04-11T21:58:25.556Z,77.62
2019-04-11T22:00:59.480Z,70.97
2019-04-11T22:03:31.256Z,55.20
2019-04-11T22:06:01.908Z,60.28
2019-04-11T22:08:34.360Z,70.08
2019-04-11T22:11:09.913Z,64.97
2019-04-11T22:13:40.453Z,63.38
2019-04-11T22:16:14.323Z,59.73
2019-04-11T22:18:44.368Z,53.00
2019-04-11T22:21:16.184Z,52.78
2019-04-11T22:23:48.832Z,58.25
2019-04-11T22:26:19.700Z,47.88
2019-04-11T22:28:54.915Z,56.58
2019-04-11T22:31:25.046Z,52.43
2019-04-11T22:34:00.233Z,51.63
2019-04-11T22:36:31.205Z,49.00
2019-04-11T22:39:03.311Z,52.38
2019-04-11T22:41:33.923Z,57.05
2019-04-11T22:44:07.765Z,61.33
2019-04-11T22:46:38.337Z,48.70
2019-04-11T22:49:09.537Z,40.92
2019-04-11T22:51:43.519Z,34.35
2019-04-11T22:54:13.757Z,35.08
2019-04-11T22:56:44.894Z,30.12
2019-04-11T22:59:15.863Z,31.45
2019-04-11T23:01:47.586Z,34.38
2019-04-11T23:04:18.479Z,32.85
2019-04-11T23:06:49.557Z,38.60
2019-04-11T23:09:20.725Z,35.50
2019-04-11T23:11:51.986Z,34.70
2019-04-11T23:14:23.037Z,36.30
2019-04-11T23:16:53.785Z,37.08
2019-04-11T23:19:24.640Z,40.90
2019-04-11T23:21:55.720Z,37.03
2019-04-11T23:24:26.780Z,36.73
2019-04-11T23:26:57.822Z,40.60
2019-04-11T23:29:28.780Z,41.60
2019-04-11T23:31:59.636Z,30.90
2019-04-11T23:34:30.722Z,37.25
2019-04-11T23:37:01.756Z,33.15
2019-04-11T23:39:33.858Z,34.03
2019-04-11T23:42:04.902Z,33.30
2019-04-11T23:44:35.979Z,32.88
2019-04-11T23:47:07.245Z,29.52
2019-04-11T23:49:38.105Z,27.82
2019-04-11T23:52:09.162Z,29.70
2019-04-11T23:54:40.000Z,30.50
2019-04-11T23:57:10.875Z,33.80
2019-04-11T23:59:41.813Z,30.62
